createdAt,value
2019-04-03T00:01:56.037Z,9.20
2019-04-03T00:03:59.694Z,9.20
2019-04-03T00:06:03.689Z,9.20
2019-04-03T00:08:07.886Z,9.20
2019-04-03T00:10:11.999Z,9.10
2019-04-03T00:12:15.670Z,9.10
2019-04-03T00:14:19.283Z,9.10
2019-04-03T00:16:22.089Z,9.10
2019-04-03T00:18:25.695Z,9.00
2019-04-03T00:20:28.523Z,9.00
2019-04-03T00:22:32.226Z,9.10
2019-04-03T00:24:35.875Z,9.00
2019-04-03T00:26:38.704Z,9.00
2019-04-03T00:28:42.281Z,9.00
2019-04-03T00:30:45.178Z,9.00
2019-04-03T00:32:48.775Z,9.00
2019-04-03T00:34:51.819Z,9.00
2019-04-03T00:36:56.903Z,9.00
2019-04-03T00:38:59.834Z,8.90
2019-04-03T00:41:03.661Z,8.90
2019-04-03T00:43:07.254Z,8.90
2019-04-03T00:45:10.218Z,8.90
2019-04-03T00:47:13.902Z,8.90
2019-04-03T00:49:17.466Z,8.90
2019-04-03T00:51:20.387Z,8.80
2019-04-03T00:53:23.923Z,8.70
2019-04-03T00:55:27.175Z,8.70
2019-04-03T00:57:30.860Z,8.70
2019-04-03T00:59:34.462Z,8.70
2019-04-03T01:01:37.299Z,8.60
2019-04-03T01:03:41.452Z,8.60
2019-04-03T01:05:45.131Z,8.60
2019-04-03T01:07:47.947Z,8.60
2019-04-03T01:09:51.533Z,8.60
2019-04-03T01:11:54.357Z,8.50
2019-04-03T01:13:58.006Z,8.60
2019-04-03T01:16:02.500Z,8.50
2019-04-03T01:18:06.139Z,8.50
2019-04-03T01:20:09.207Z,8.50
2019-04-03T01:22:12.805Z,8.50
2019-04-03T01:24:15.582Z,8.50
2019-04-03T01:26:19.162Z,8.40
2019-04-03T01:28:21.949Z,8.30
2019-04-03T01:30:25.550Z,8.30
2019-04-03T01:32:28.368Z,8.30
2019-04-03T01:34:31.978Z,8.30
2019-04-03T01:36:34.832Z,8.30
2019-04-03T01:38:38.431Z,8.20
2019-04-03T01:40:42.105Z,8.20
2019-04-03T01:42:45.037Z,8.20
2019-04-03T01:44:48.696Z,8.20
2019-04-03T01:46:51.536Z,8.10
2019-04-03T01:48:55.101Z,8.10
2019-04-03T01:50:59.599Z,8.10
2019-04-03T01:53:03.282Z,8.10
2019-04-03T01:55:06.974Z,8.10
2019-04-03T01:57:10.551Z,8.10
2019-04-03T01:59:13.349Z,8.10
2019-04-03T02:01:17.024Z,8.10
2019-04-03T02:03:20.816Z,8.10
2019-04-03T02:05:25.096Z,8.10
2019-04-03T02:07:28.702Z,8.10
2019-04-03T02:09:31.493Z,8.00
2019-04-03T02:11:35.107Z,8.10
2019-04-03T02:13:38.065Z,8.10
2019-04-03T02:15:41.792Z,8.10
2019-04-03T02:17:45.513Z,8.10
2019-04-03T02:19:49.190Z,8.10
2019-04-03T02:21:52.760Z,8.00
2019-04-03T02:23:55.598Z,8.10
2019-04-03T02:25:59.228Z,8.00
2019-04-03T02:28:04.049Z,8.10
2019-04-03T02:30:12.150Z,8.00
2019-04-03T02:32:13.266Z,8.00
2019-04-03T02:34:16.099Z,8.00
2019-04-03T02:36:19.691Z,8.00
2019-04-03T02:38:23.423Z,8.00
2019-04-03T02:40:31.291Z,8.00
2019-04-03T02:42:32.769Z,8.00
2019-04-03T02:44:35.531Z,7.90
2019-04-03T02:46:39.182Z,7.90
2019-04-03T02:48:42.802Z,7.90
2019-04-03T02:50:47.542Z,7.90
2019-04-03T02:52:50.918Z,7.90
2019-04-03T02:54:54.733Z,7.90
2019-04-03T02:56:58.784Z,7.90
2019-04-03T02:59:02.356Z,7.90
2019-04-03T03:01:06.928Z,7.90
2019-04-03T03:03:10.492Z,7.90
2019-04-03T03:05:14.483Z,7.90
2019-04-03T03:07:18.183Z,7.90
2019-04-03T03:09:22.010Z,7.90
2019-04-03T03:11:27.263Z,8.00
2019-04-03T03:13:34.554Z,7.90
2019-04-03T03:15:38.032Z,7.90
2019-04-03T03:17:41.836Z,8.00
2019-04-03T03:19:47.442Z,8.00
2019-04-03T03:21:52.838Z,8.00
2019-04-03T03:23:57.332Z,8.00
2019-04-03T03:26:04.286Z,8.00
2019-04-03T03:28:07.979Z,8.00
2019-04-03T03:30:33.355Z,8.00
2019-04-03T03:32:22.412Z,8.00
2019-04-03T03:34:45.040Z,8.00
2019-04-03T03:36:30.226Z,8.00
2019-04-03T03:38:38.205Z,7.90
2019-04-03T03:40:41.514Z,7.90
2019-04-03T03:42:45.295Z,7.80
2019-04-03T03:44:49.955Z,7.80
2019-04-03T03:46:54.514Z,7.70
2019-04-03T03:48:58.545Z,7.70
2019-04-03T03:51:04.170Z,7.70
2019-04-03T03:53:11.778Z,7.80
2019-04-03T03:55:13.946Z,7.80
2019-04-03T03:57:18.028Z,7.80
2019-04-03T03:59:21.797Z,7.80
2019-04-03T04:01:25.775Z,7.90
2019-04-03T04:03:30.423Z,7.90
2019-04-03T04:05:34.542Z,7.90
2019-04-03T04:07:38.520Z,7.90
2019-04-03T04:09:42.859Z,7.90
2019-04-03T04:11:46.699Z,7.90
2019-04-03T04:13:50.514Z,7.90
2019-04-03T04:15:54.345Z,7.90
2019-04-03T04:17:58.500Z,7.90
2019-04-03T04:20:05.137Z,7.80
2019-04-03T04:22:07.678Z,7.80
2019-04-03T04:24:11.560Z,7.80
2019-04-03T04:26:15.172Z,7.80
2019-04-03T04:28:18.332Z,7.80
2019-04-03T04:30:22.195Z,7.80
2019-04-03T04:32:25.903Z,7.90
2019-04-03T04:34:29.483Z,7.90
2019-04-03T04:36:32.309Z,7.90
2019-04-03T04:38:35.959Z,7.90
2019-04-03T04:40:39.570Z,8.00
2019-04-03T04:42:42.381Z,8.00
2019-04-03T04:44:45.992Z,8.00
2019-04-03T04:46:48.806Z,8.10
2019-04-03T04:48:52.464Z,8.10
2019-04-03T04:50:56.182Z,8.10
2019-04-03T04:52:59.861Z,8.20
2019-04-03T04:55:03.848Z,8.20
2019-04-03T04:57:08.928Z,8.20
2019-04-03T04:59:13.582Z,8.30
2019-04-03T05:01:18.233Z,8.30
2019-04-03T05:03:22.405Z,8.40
2019-04-03T05:05:27.181Z,8.40
2019-04-03T05:07:31.487Z,8.40
2019-04-03T05:09:34.815Z,8.50
2019-04-03T05:11:39.461Z,8.50
2019-04-03T05:13:43.381Z,8.60
2019-04-03T05:15:47.305Z,8.70
2019-04-03T05:17:50.986Z,8.70
2019-04-03T05:19:53.944Z,8.70
2019-04-03T05:21:57.833Z,8.80
2019-04-03T05:24:11.418Z,8.80
2019-04-03T05:26:06.944Z,8.80
2019-04-03T05:28:09.840Z,8.80
2019-04-03T05:30:16.562Z,8.90
2019-04-03T05:32:20.145Z,8.90
2019-04-03T05:34:22.947Z,9.00
2019-04-03T05:36:26.535Z,9.00
2019-04-03T05:38:29.326Z,9.00
2019-04-03T05:40:33.274Z,9.00
2019-04-03T05:42:36.914Z,9.00
2019-04-03T05:44:39.776Z,9.00
2019-04-03T05:46:43.391Z,9.00
2019-04-03T05:48:47.999Z,9.10
2019-04-03T05:50:52.251Z,9.10
2019-04-03T05:52:55.057Z,9.10
2019-04-03T05:54:58.686Z,9.10
2019-04-03T05:57:01.512Z,9.20
2019-04-03T05:59:05.182Z,9.30
2019-04-03T06:01:11.034Z,9.30
2019-04-03T06:03:14.082Z,9.30
2019-04-03T06:05:19.147Z,9.30
2019-04-03T06:07:22.147Z,9.30
2019-04-03T06:09:24.905Z,9.40
2019-04-03T06:11:28.658Z,9.40
2019-04-03T06:13:32.310Z,9.50
2019-04-03T06:15:35.993Z,9.50
2019-04-03T06:17:39.605Z,9.60
2019-04-03T06:19:42.394Z,9.60
2019-04-03T06:21:46.576Z,9.60
2019-04-03T06:23:52.083Z,9.60
2019-04-03T06:25:55.535Z,9.70
2019-04-03T06:27:59.047Z,9.70
2019-04-03T06:30:02.912Z,9.70
2019-04-03T06:32:06.646Z,9.80
2019-04-03T06:34:10.296Z,9.80
2019-04-03T06:36:13.132Z,9.90
2019-04-03T06:38:16.995Z,9.90
2019-04-03T06:40:20.667Z,9.90
2019-04-03T06:42:23.496Z,10.00
2019-04-03T06:44:27.309Z,10.00
2019-04-03T06:46:31.154Z,10.10
2019-04-03T06:48:36.590Z,10.20
2019-04-03T06:50:40.193Z,10.30
2019-04-03T06:52:43.036Z,10.30
2019-04-03T06:54:46.577Z,10.40
2019-04-03T06:56:52.083Z,10.40
2019-04-03T06:58:54.993Z,10.40
2019-04-03T07:00:58.710Z,10.50
2019-04-03T07:03:03.898Z,10.50
2019-04-03T07:05:09.559Z,10.50
2019-04-03T07:07:12.474Z,10.60
2019-04-03T07:09:22.760Z,10.70
2019-04-03T07:11:23.678Z,10.80
2019-04-03T07:13:28.892Z,10.90
2019-04-03T07:15:31.396Z,10.90
2019-04-03T07:17:34.985Z,11.00
2019-04-03T07:19:39.718Z,11.00
2019-04-03T07:21:43.250Z,11.10
2019-04-03T07:23:46.877Z,11.20
2019-04-03T07:25:49.918Z,11.20
2019-04-03T07:27:53.510Z,11.30
2019-04-03T07:29:56.312Z,11.30
2019-04-03T07:31:59.949Z,11.40
2019-04-03T07:34:04.016Z,11.50
2019-04-03T07:36:08.783Z,11.50
2019-04-03T07:38:13.142Z,11.50
2019-04-03T07:40:16.014Z,11.50
2019-04-03T07:42:19.614Z,11.60
2019-04-03T07:44:22.433Z,11.70
2019-04-03T07:46:26.047Z,11.70
2019-04-03T07:48:28.868Z,11.70
2019-04-03T07:50:32.472Z,11.80
2019-04-03T07:52:35.328Z,11.80
2019-04-03T07:54:38.917Z,11.90
2019-04-03T07:56:42.015Z,11.90
2019-04-03T07:58:45.707Z,12.00
2019-04-03T08:00:48.531Z,12.00
2019-04-03T08:02:52.390Z,12.10
2019-04-03T08:04:59.360Z,12.10
2019-04-03T08:07:01.391Z,12.20
2019-04-03T08:09:09.078Z,12.30
2019-04-03T08:11:11.236Z,12.30
2019-04-03T08:13:15.161Z,12.30
2019-04-03T08:15:19.304Z,12.30
2019-04-03T08:17:23.298Z,12.40
2019-04-03T08:19:26.930Z,12.40
2019-04-03T08:21:30.564Z,12.40
2019-04-03T08:23:37.070Z,12.50
2019-04-03T08:25:42.363Z,12.60
2019-04-03T08:27:45.130Z,12.60
2019-04-03T08:29:47.959Z,12.60
2019-04-03T08:31:54.702Z,12.70
2019-04-03T08:33:59.521Z,12.70
2019-04-03T08:36:06.661Z,12.80
2019-04-03T08:38:08.857Z,12.90
2019-04-03T08:40:12.044Z,13.00
2019-04-03T08:42:15.864Z,13.00
2019-04-03T08:44:19.522Z,13.00
2019-04-03T08:46:22.334Z,13.00
2019-04-03T08:48:25.961Z,13.00
2019-04-03T08:50:29.151Z,13.10
2019-04-03T08:52:32.945Z,13.10
2019-04-03T08:54:35.727Z,13.10
2019-04-03T08:56:39.305Z,13.10
2019-04-03T08:58:42.130Z,13.20
2019-04-03T09:00:45.710Z,13.20
2019-04-03T09:02:48.582Z,13.20
2019-04-03T09:04:52.222Z,13.20
2019-04-03T09:06:55.390Z,13.30
2019-04-03T09:08:59.268Z,13.30
2019-04-03T09:11:05.047Z,13.40
2019-04-03T09:13:16.947Z,13.50
2019-04-03T09:15:13.740Z,13.50
2019-04-03T09:17:17.349Z,13.50
2019-04-03T09:19:20.161Z,13.70
2019-04-03T09:21:23.908Z,13.90
2019-04-03T09:23:27.593Z,14.00
2019-04-03T09:25:31.649Z,14.10
2019-04-03T09:27:34.925Z,14.20
2019-04-03T09:29:38.580Z,14.40
2019-04-03T09:31:41.453Z,14.60
2019-04-03T09:33:45.101Z,14.60
2019-04-03T09:35:47.905Z,14.70
2019-04-03T09:37:51.586Z,14.70
2019-04-03T09:39:54.383Z,14.80
2019-04-03T09:41:57.986Z,14.90
2019-04-03T09:44:01.103Z,15.10
2019-04-03T09:46:05.235Z,15.20
2019-04-03T09:48:11.756Z,15.30
2019-04-03T09:50:15.658Z,15.40
2019-04-03T09:52:19.540Z,15.50
2019-04-03T09:54:23.305Z,15.60
2019-04-03T09:56:26.083Z,15.60
2019-04-03T09:58:29.716Z,15.60
2019-04-03T10:00:32.510Z,15.70
2019-04-03T10:02:36.106Z,15.80
2019-04-03T10:04:38.908Z,15.90
2019-04-03T10:06:42.794Z,16.10
2019-04-03T10:08:47.051Z,16.20
2019-04-03T10:10:50.753Z,16.20
2019-04-03T10:12:54.174Z,16.30
2019-04-03T10:14:59.255Z,16.40
2019-04-03T10:17:05.936Z,16.50
2019-04-03T10:19:09.123Z,16.60
2019-04-03T10:21:12.733Z,16.70
2019-04-03T10:23:15.608Z,16.70
2019-04-03T10:25:19.428Z,16.90
2019-04-03T10:27:23.042Z,17.00
2019-04-03T10:29:25.844Z,17.10
2019-04-03T10:31:29.676Z,17.20
2019-04-03T10:33:33.266Z,17.30
2019-04-03T10:35:38.558Z,17.50
2019-04-03T10:37:41.438Z,17.60
2019-04-03T10:39:44.936Z,17.60
2019-04-03T10:41:48.530Z,17.80
2019-04-03T10:43:51.342Z,18.00
2019-04-03T10:45:54.934Z,18.00
2019-04-03T10:47:57.984Z,18.00
2019-04-03T10:50:02.596Z,18.00
2019-04-03T10:52:07.275Z,18.10
2019-04-03T10:54:11.002Z,18.20
2019-04-03T10:56:14.619Z,18.40
2019-04-03T10:58:18.202Z,18.50
2019-04-03T11:00:23.514Z,18.50
2019-04-03T11:02:26.588Z,18.40
2019-04-03T11:04:30.222Z,18.40
2019-04-03T11:06:36.509Z,18.30
2019-04-03T11:08:39.106Z,18.20
2019-04-03T11:10:42.067Z,18.30
2019-04-03T11:12:45.899Z,18.40
2019-04-03T11:14:49.489Z,18.50
2019-04-03T11:16:52.592Z,18.70
2019-04-03T11:18:59.910Z,18.60
2019-04-03T11:21:01.435Z,18.70
2019-04-03T11:23:07.125Z,19.00
2019-04-03T11:25:08.883Z,19.10
2019-04-03T11:27:12.496Z,19.10
2019-04-03T11:29:15.273Z,19.20
2019-04-03T11:31:25.869Z,19.40
2019-04-03T11:33:24.259Z,19.40
2019-04-03T11:35:28.057Z,19.40
2019-04-03T11:37:33.023Z,19.30
2019-04-03T11:39:37.514Z,19.40
2019-04-03T11:41:41.570Z,19.40
2019-04-03T11:43:44.382Z,19.50
2019-04-03T11:45:48.152Z,19.40
2019-04-03T11:47:51.808Z,19.50
2019-04-03T11:49:54.670Z,19.50
2019-04-03T11:51:58.991Z,19.40
2019-04-03T11:54:06.875Z,19.40
2019-04-03T11:56:08.815Z,19.30
2019-04-03T11:58:11.612Z,19.40
2019-04-03T12:00:20.914Z,19.50
2019-04-03T12:02:25.009Z,19.80
2019-04-03T12:04:28.656Z,19.90
2019-04-03T12:06:33.252Z,19.70
2019-04-03T12:08:37.035Z,19.60
2019-04-03T12:10:40.752Z,19.40
2019-04-03T12:12:44.332Z,19.50
2019-04-03T12:14:49.140Z,19.50
2019-04-03T12:16:52.582Z,19.50
2019-04-03T12:18:56.228Z,19.60
2019-04-03T12:20:59.102Z,19.80
2019-04-03T12:23:02.749Z,19.80
2019-04-03T12:25:06.269Z,19.80
2019-04-03T12:27:09.945Z,20.00
2019-04-03T12:29:13.754Z,19.90
2019-04-03T12:31:17.484Z,19.90
2019-04-03T12:33:21.737Z,20.10
2019-04-03T12:35:25.561Z,20.10
2019-04-03T12:37:29.167Z,20.20
2019-04-03T12:39:33.032Z,20.20
2019-04-03T12:41:37.921Z,20.30
2019-04-03T12:43:41.748Z,20.20
2019-04-03T12:45:45.353Z,20.10
2019-04-03T12:47:48.922Z,20.20
2019-04-03T12:49:51.951Z,20.20
2019-04-03T12:51:56.991Z,20.40
2019-04-03T12:54:00.563Z,20.30
2019-04-03T12:56:03.484Z,20.20
2019-04-03T12:58:07.071Z,20.20
2019-04-03T13:00:12.683Z,20.50
2019-04-03T13:02:16.482Z,20.70
2019-04-03T13:04:21.129Z,20.90
2019-04-03T13:06:24.885Z,21.00
2019-04-03T13:08:28.495Z,21.10
2019-04-03T13:10:41.499Z,21.10
2019-04-03T13:12:37.511Z,20.90
2019-04-03T13:14:41.086Z,20.90
2019-04-03T13:16:46.597Z,21.00
2019-04-03T13:18:49.929Z,21.00
2019-04-03T13:20:53.524Z,20.90
2019-04-03T13:22:56.341Z,21.10
2019-04-03T13:24:59.948Z,21.10
2019-04-03T13:27:03.337Z,21.10
2019-04-03T13:29:08.889Z,21.00
2019-04-03T13:31:14.459Z,21.10
2019-04-03T13:33:17.879Z,21.20
2019-04-03T13:35:21.948Z,21.20
2019-04-03T13:37:25.643Z,21.20
2019-04-03T13:39:32.536Z,21.30
2019-04-03T13:41:34.958Z,21.30
2019-04-03T13:43:38.995Z,21.30
2019-04-03T13:45:43.063Z,21.30
2019-04-03T13:47:46.963Z,21.30
2019-04-03T13:49:51.173Z,21.30
2019-04-03T13:51:57.996Z,21.30
2019-04-03T13:54:00.013Z,21.10
2019-04-03T13:56:05.498Z,21.30
2019-04-03T13:58:08.178Z,21.30
2019-04-03T14:00:19.642Z,21.30
2019-04-03T14:02:17.830Z,21.20
2019-04-03T14:04:22.928Z,21.40
2019-04-03T14:06:26.770Z,21.20
2019-04-03T14:08:29.852Z,21.10
2019-04-03T14:10:34.023Z,21.00
2019-04-03T14:12:40.151Z,20.80
2019-04-03T14:14:43.177Z,20.70
2019-04-03T14:16:46.863Z,20.60
2019-04-03T14:18:50.716Z,20.50
2019-04-03T14:20:56.285Z,20.50
2019-04-03T14:23:02.721Z,20.40
2019-04-03T14:25:18.473Z,20.40
2019-04-03T14:27:21.848Z,20.40
2019-04-03T14:29:17.990Z,20.60
2019-04-03T14:31:33.550Z,20.70
2019-04-03T14:33:27.004Z,20.90
2019-04-03T14:35:51.865Z,21.00
2019-04-03T14:37:35.189Z,21.10
2019-04-03T14:39:40.198Z,21.10
2019-04-03T14:41:44.156Z,21.20
2019-04-03T14:43:47.223Z,21.40
2019-04-03T14:45:50.933Z,21.40
2019-04-03T14:47:54.886Z,21.50
2019-04-03T14:49:59.050Z,21.30
2019-04-03T14:52:02.992Z,21.30
2019-04-03T14:54:08.754Z,21.20
2019-04-03T14:56:11.888Z,21.40
2019-04-03T14:58:15.580Z,21.50
2019-04-03T15:00:27.369Z,21.60
2019-04-03T15:02:24.842Z,21.60
2019-04-03T15:04:30.084Z,21.40
2019-04-03T15:06:33.678Z,21.50
2019-04-03T15:08:36.944Z,21.70
2019-04-03T15:10:40.781Z,21.70
2019-04-03T15:12:44.549Z,21.60
2019-04-03T15:14:48.258Z,21.60
2019-04-03T15:16:51.079Z,21.40
2019-04-03T15:18:54.729Z,21.40
2019-04-03T15:20:58.413Z,21.70
2019-04-03T15:23:04.919Z,21.40
2019-04-03T15:25:08.749Z,21.40
2019-04-03T15:27:12.578Z,21.30
2019-04-03T15:29:16.227Z,21.40
2019-04-03T15:31:20.138Z,21.40
2019-04-03T15:33:24.912Z,21.20
2019-04-03T15:35:29.838Z,21.20
2019-04-03T15:37:33.985Z,21.00
2019-04-03T15:39:36.805Z,21.00
2019-04-03T15:41:40.477Z,21.00
2019-04-03T15:43:46.659Z,21.00
2019-04-03T15:45:49.378Z,21.10
2019-04-03T15:47:56.389Z,21.10
2019-04-03T15:49:59.604Z,21.10
2019-04-03T15:52:03.751Z,20.60
2019-04-03T15:54:07.446Z,20.50
2019-04-03T15:56:13.002Z,20.40
2019-04-03T15:58:15.771Z,20.20
2019-04-03T16:00:20.245Z,19.90
2019-04-03T16:02:27.990Z,19.60
2019-04-03T16:04:33.436Z,19.50
2019-04-03T16:06:36.809Z,19.40
2019-04-03T16:08:43.613Z,19.30
2019-04-03T16:10:46.306Z,19.20
2019-04-03T16:12:49.957Z,19.20
2019-04-03T16:14:56.270Z,19.10
2019-04-03T16:17:02.938Z,19.10
2019-04-03T16:19:08.363Z,19.20
2019-04-03T16:21:11.997Z,19.10
2019-04-03T16:23:14.997Z,19.00
2019-04-03T16:25:18.779Z,18.90
2019-04-03T16:27:22.365Z,18.90
2019-04-03T16:29:25.232Z,18.90
2019-04-03T16:31:29.337Z,18.90
2019-04-03T16:33:33.380Z,18.80
2019-04-03T16:35:38.263Z,18.70
2019-04-03T16:37:41.551Z,18.60
2019-04-03T16:39:45.411Z,18.50
2019-04-03T16:41:49.069Z,18.40
2019-04-03T16:43:52.888Z,18.40
2019-04-03T16:45:57.781Z,18.40
2019-04-03T16:48:01.390Z,18.30
2019-04-03T16:50:06.002Z,18.20
2019-04-03T16:52:09.592Z,18.10
2019-04-03T16:54:12.786Z,18.00
2019-04-03T16:56:18.611Z,17.90
2019-04-03T16:58:21.848Z,17.80
2019-04-03T17:00:25.592Z,17.70
2019-04-03T17:02:29.991Z,17.60
2019-04-03T17:04:35.717Z,17.60
2019-04-03T17:06:39.577Z,17.50
2019-04-03T17:08:44.820Z,17.40
2019-04-03T17:10:48.719Z,17.30
2019-04-03T17:12:54.708Z,17.30
2019-04-03T17:14:57.750Z,17.20
2019-04-03T17:17:00.903Z,17.10
2019-04-03T17:19:04.865Z,17.10
2019-04-03T17:21:08.616Z,17.00
2019-04-03T17:23:12.987Z,16.90
2019-04-03T17:25:17.579Z,16.90
2019-04-03T17:27:21.200Z,16.80
2019-04-03T17:29:24.006Z,16.80
2019-04-03T17:31:27.617Z,16.80
2019-04-03T17:33:30.431Z,16.80
2019-04-03T17:35:34.005Z,16.70
2019-04-03T17:37:36.995Z,16.60
2019-04-03T17:39:40.634Z,16.60
2019-04-03T17:41:44.339Z,16.50
2019-04-03T17:43:47.238Z,16.40
2019-04-03T17:45:50.889Z,16.40
2019-04-03T17:47:54.001Z,16.20
2019-04-03T17:49:59.272Z,16.20
2019-04-03T17:52:05.120Z,16.10
2019-04-03T17:54:08.505Z,16.00
2019-04-03T17:56:13.009Z,15.90
2019-04-03T17:58:17.326Z,15.80
2019-04-03T18:00:22.195Z,15.70
2019-04-03T18:02:25.791Z,15.70
2019-04-03T18:04:28.684Z,15.60
2019-04-03T18:06:32.349Z,15.50
2019-04-03T18:08:35.147Z,15.50
2019-04-03T18:10:38.799Z,15.40
2019-04-03T18:12:41.771Z,15.40
2019-04-03T18:14:45.370Z,15.40
2019-04-03T18:16:48.223Z,15.30
2019-04-03T18:18:51.827Z,15.30
2019-04-03T18:20:54.698Z,15.30
2019-04-03T18:22:58.378Z,15.20
2019-04-03T18:25:01.181Z,15.20
2019-04-03T18:27:06.464Z,15.10
2019-04-03T18:29:10.301Z,15.10
2019-04-03T18:31:13.587Z,15.10
2019-04-03T18:33:17.709Z,15.00
2019-04-03T18:35:20.762Z,14.90
2019-04-03T18:37:24.350Z,14.90
2019-04-03T18:39:27.257Z,14.90
2019-04-03T18:41:30.836Z,14.80
2019-04-03T18:43:34.467Z,14.80
2019-04-03T18:45:37.285Z,14.80
2019-04-03T18:47:42.075Z,14.70
2019-04-03T18:49:46.151Z,14.70
2019-04-03T18:51:48.964Z,14.70
2019-04-03T18:53:52.563Z,14.60
2019-04-03T18:55:55.389Z,14.60
2019-04-03T18:57:58.951Z,14.60
2019-04-03T19:00:01.768Z,14.60
2019-04-03T19:02:05.698Z,14.50
2019-04-03T19:04:09.380Z,14.50
2019-04-03T19:06:13.712Z,14.50
2019-04-03T19:08:18.233Z,14.50
2019-04-03T19:10:23.391Z,14.40
2019-04-03T19:12:35.609Z,14.40
2019-04-03T19:14:32.666Z,14.40
2019-04-03T19:16:45.018Z,14.50
2019-04-03T19:18:39.925Z,14.50
2019-04-03T19:20:43.661Z,14.60
2019-04-03T19:22:47.294Z,14.60
2019-04-03T19:24:50.087Z,14.50
2019-04-03T19:26:53.689Z,14.50
2019-04-03T19:28:56.490Z,14.50
2019-04-03T19:31:00.271Z,14.40
2019-04-03T19:33:03.942Z,14.40
2019-04-03T19:35:09.393Z,14.40
2019-04-03T19:37:12.768Z,14.40
2019-04-03T19:39:15.673Z,14.30
2019-04-03T19:41:19.271Z,14.30
2019-04-03T19:43:22.121Z,14.20
2019-04-03T19:45:25.719Z,14.10
2019-04-03T19:47:28.631Z,14.10
2019-04-03T19:49:32.350Z,14.10
2019-04-03T19:51:35.607Z,14.00
2019-04-03T19:53:40.910Z,14.00
2019-04-03T19:55:44.667Z,13.90
2019-04-03T19:57:48.241Z,13.90
2019-04-03T19:59:51.059Z,13.80
2019-04-03T20:01:54.663Z,13.80
2019-04-03T20:03:57.489Z,13.70
2019-04-03T20:06:01.140Z,13.70
2019-04-03T20:08:04.009Z,13.70
2019-04-03T20:10:09.772Z,13.60
2019-04-03T20:12:13.314Z,13.50
2019-04-03T20:14:16.106Z,13.50
2019-04-03T20:16:19.721Z,13.50
2019-04-03T20:18:25.586Z,13.40
2019-04-03T20:20:29.695Z,13.40
2019-04-03T20:22:33.113Z,13.30
2019-04-03T20:24:35.902Z,13.30
2019-04-03T20:26:39.673Z,13.20
2019-04-03T20:28:43.412Z,13.20
2019-04-03T20:30:46.987Z,13.10
2019-04-03T20:32:49.797Z,13.10
2019-04-03T20:34:53.472Z,13.10
2019-04-03T20:36:56.329Z,13.00
2019-04-03T20:39:00.037Z,13.00
2019-04-03T20:41:03.931Z,13.00
2019-04-03T20:43:07.599Z,13.00
2019-04-03T20:45:10.474Z,13.00
2019-04-03T20:47:14.222Z,12.90
2019-04-03T20:49:17.923Z,12.90
2019-04-03T20:51:20.797Z,13.00
2019-04-03T20:53:24.391Z,13.00
2019-04-03T20:55:27.230Z,13.00
2019-04-03T20:57:31.094Z,13.00
2019-04-03T20:59:36.115Z,13.00
2019-04-03T21:01:38.982Z,13.00
2019-04-03T21:03:43.767Z,12.90
2019-04-03T21:05:48.766Z,13.00
2019-04-03T21:07:55.578Z,13.00
2019-04-03T21:10:00.494Z,12.90
2019-04-03T21:12:05.074Z,12.90
2019-04-03T21:14:11.358Z,12.90
2019-04-03T21:16:16.966Z,12.90
2019-04-03T21:18:21.279Z,12.90
2019-04-03T21:20:24.851Z,12.90
2019-04-03T21:22:29.466Z,12.80
2019-04-03T21:24:34.130Z,12.80
2019-04-03T21:26:38.277Z,12.80
2019-04-03T21:28:42.908Z,12.80
2019-04-03T21:30:47.756Z,12.80
2019-04-03T21:32:51.487Z,12.80
2019-04-03T21:34:54.319Z,12.80
2019-04-03T21:36:57.907Z,12.70
2019-04-03T21:39:00.746Z,12.80
2019-04-03T21:41:04.675Z,12.70
2019-04-03T21:43:09.574Z,12.70
2019-04-03T21:45:13.585Z,12.70
2019-04-03T21:47:17.124Z,12.70
2019-04-03T21:49:19.915Z,12.70
2019-04-03T21:51:23.512Z,12.70
2019-04-03T21:53:26.476Z,12.70
2019-04-03T21:55:31.070Z,12.70
2019-04-03T21:57:37.538Z,12.70
2019-04-03T21:59:41.709Z,12.70
2019-04-03T22:01:46.045Z,12.70
2019-04-03T22:03:51.359Z,12.70
2019-04-03T22:05:56.094Z,12.70
2019-04-03T22:08:00.150Z,12.70
2019-04-03T22:10:03.229Z,12.70
2019-04-03T22:12:06.910Z,12.70
2019-04-03T22:14:11.042Z,12.70
2019-04-03T22:16:15.082Z,12.70
2019-04-03T22:18:17.998Z,12.70
2019-04-03T22:20:21.600Z,12.70
2019-04-03T22:22:24.408Z,12.60
2019-04-03T22:24:28.003Z,12.60
2019-04-03T22:26:30.880Z,12.60
2019-04-03T22:28:34.554Z,12.60
2019-04-03T22:30:37.397Z,12.60
2019-04-03T22:32:40.955Z,12.60
2019-04-03T22:34:43.772Z,12.60
2019-04-03T22:36:47.437Z,12.60
2019-04-03T22:38:50.227Z,12.60
2019-04-03T22:40:53.822Z,12.60
2019-04-03T22:42:56.617Z,12.60
2019-04-03T22:45:00.268Z,12.50
2019-04-03T22:47:03.111Z,12.50
2019-04-03T22:49:06.633Z,12.50
2019-04-03T22:51:09.471Z,12.50
2019-04-03T22:53:13.081Z,12.50
2019-04-03T22:55:15.891Z,12.40
2019-04-03T22:57:20.140Z,12.40
2019-04-03T22:59:24.464Z,12.30
2019-04-03T23:01:29.894Z,12.30
2019-04-03T23:03:33.911Z,12.30
2019-04-03T23:05:38.081Z,12.20
2019-04-03T23:07:41.128Z,12.20
2019-04-03T23:09:44.794Z,12.10
2019-04-03T23:11:48.380Z,12.10
2019-04-03T23:13:51.212Z,12.00
2019-04-03T23:15:54.842Z,12.00
2019-04-03T23:17:57.671Z,12.00
2019-04-03T23:20:01.329Z,11.90
2019-04-03T23:22:04.200Z,11.90
2019-04-03T23:24:07.799Z,11.90
2019-04-03T23:26:10.696Z,11.90
2019-04-03T23:28:14.270Z,11.80
2019-04-03T23:30:17.175Z,11.70
2019-04-03T23:32:20.821Z,11.70
2019-04-03T23:34:23.608Z,11.70
2019-04-03T23:36:27.224Z,11.70
2019-04-03T23:38:30.084Z,11.60
2019-04-03T23:40:34.714Z,11.60
2019-04-03T23:42:38.730Z,11.50
2019-04-03T23:44:42.075Z,11.50
2019-04-03T23:46:46.233Z,11.50
2019-04-03T23:48:49.488Z,11.50
2019-04-03T23:50:53.408Z,11.50
2019-04-03T23:52:57.008Z,11.50
2019-04-03T23:54:59.872Z,11.50
2019-04-03T23:57:03.559Z,11.50
2019-04-03T23:59:07.129Z,11.40
